Time;durP1;ratioP1;P1;durP2;ratioP2;P2;SDS_P1;SDS_P2;PMS_P1;PMS_P2;Temp;Humidity;BMP_temperature;BMP_pressure;BME280_temperature;BME280_humidity;BME280_pressure;Samples;Min_cycle;Max_cycle;Signal;HPM_P1;HPM_P2
2022/09/19 09:07:41;;;;;;;0.60;0.20;;;;;;;24.56;33.39;100194.14;115567;1195;22945;-60
2022/09/19 09:10:18;;;;;;;0.40;0.20;;;;;;;24.73;33.40;100195.63;116574;1189;23650;-75
2022/09/19 09:12:53;;;;;;;0.80;0.30;;;;;;;24.85;33.60;100194.16;116750;1192;21884;-78
2022/09/19 09:15:25;;;;;;;0.90;0.60;;;;;;;24.98;33.37;100191.77;116524;1192;23573;-75
2022/09/19 09:18:18;;;;;;;1.90;0.30;;;;;;;25.15;32.74;100186.04;116556;1192;23584;-61
2022/09/19 09:21:15;;;;;;;37.30;3.00;;;;;;;25.33;32.09;100192.20;116595;1192;21871;-61
2022/09/19 09:23:48;;;;;;;0.40;0.20;;;;;;;25.33;32.12;100197.71;116599;1189;21873;-76
2022/09/19 09:26:18;;;;;;;0.20;0.20;;;;;;;25.28;31.86;100198.15;116761;1192;21930;-61
2022/09/19 09:28:55;;;;;;;2.10;0.30;;;;;;;25.28;32.48;100191.83;116614;1192;21879;-66
2022/09/19 09:31:37;;;;;;;5.30;0.50;;;;;;;25.33;32.56;100186.80;116625;1192;24244;-76
2022/09/19 09:34:19;;;;;;;2.10;0.50;;;;;;;25.31;31.54;100188.04;116665;1191;23497;-77
2022/09/19 09:36:55;;;;;;;1.10;0.30;;;;;;;25.32;32.06;100187.25;116625;1192;23563;-62
2022/09/19 09:39:27;;;;;;;0.50;0.30;;;;;;;25.45;32.71;100186.58;116644;1192;21871;-62
2022/09/19 09:41:59;;;;;;;2.10;0.30;;;;;;;25.66;32.09;100184.09;116572;1192;23560;-62
2022/09/19 09:45:03;;;;;;;1.20;0.40;;;;;;;25.77;31.95;100180.91;116650;1192;22069;-74
2022/09/19 09:47:44;;;;;;;2.50;0.30;;;;;;;25.97;31.33;100177.70;116526;1191;22827;-70
2022/09/19 09:50:17;;;;;;;0.50;0.30;;;;;;;26.12;31.65;100182.41;116613;1192;23586;-75
2022/09/19 09:52:51;;;;;;;20.80;1.50;;;;;;;26.02;29.16;100186.80;116646;1192;22933;-75
2022/09/19 09:58:25;;;;;;;0.40;0.20;;;;;;;25.65;31.93;100198.01;116589;1191;21861;-75
2022/09/19 10:04:03;;;;;;;1.80;0.30;;;;;;;25.50;30.73;100201.81;116655;1192;23734;-73
2022/09/19 10:06:35;;;;;;;0.70;0.30;;;;;;;25.47;30.77;100201.88;116643;1191;24233;-62
2022/09/19 10:09:03;;;;;;;0.70;0.30;;;;;;;25.38;29.56;100196.80;116604;1192;22937;-62
2022/09/19 10:11:36;;;;;;;0.70;0.30;;;;;;;25.35;29.20;100190.40;118475;1187;23560;-70
2022/09/19 10:14:28;;;;;;;7.30;0.50;;;;;;;25.47;29.74;100194.16;118121;1187;22629;-72
2022/09/19 10:17:01;;;;;;;0.80;0.50;;;;;;;25.63;30.53;100199.77;117153;1188;23085;-62
2022/09/19 10:19:42;;;;;;;2.10;0.30;;;;;;;25.61;29.57;100197.94;117190;1186;21854;-62
2022/09/19 10:22:14;;;;;;;4.70;0.50;;;;;;;25.50;28.75;100201.66;117088;1186;23641;-62
2022/09/19 10:24:45;;;;;;;1.10;0.40;;;;;;;25.31;28.66;100199.64;117106;1186;23553;-62
2022/09/19 10:27:23;;;;;;;0.90;0.50;;;;;;;25.18;28.18;100200.66;117119;1187;21921;-70
2022/09/19 10:29:52;;;;;;;0.50;0.30;;;;;;;25.13;29.03;100199.45;117080;1188;23589;-62
2022/09/19 10:32:24;;;;;;;5.20;0.70;;;;;;;25.17;30.03;100193.59;117063;1188;23560;-63
2022/09/19 10:34:52;;;;;;;3.60;0.30;;;;;;;25.30;30.00;100193.84;117006;1183;21856;-71
2022/09/19 10:37:23;;;;;;;1.20;0.30;;;;;;;25.43;28.80;100193.97;117096;1186;23573;-70
2022/09/19 10:39:50;;;;;;;1.20;0.40;;;;;;;25.53;29.16;100195.90;117111;1187;21870;-62
2022/09/19 10:42:36;;;;;;;0.90;0.30;;;;;;;25.69;30.12;100194.41;117060;1188;23560;-71
2022/09/19 10:45:23;;;;;;;0.50;0.30;;;;;;;25.96;29.46;100188.52;116998;1182;23558;-62
2022/09/19 10:48:07;;;;;;;0.80;0.40;;;;;;;26.21;29.48;100177.95;116965;1182;21870;-72
2022/09/19 10:50:34;;;;;;;1.60;0.40;;;;;;;26.31;28.43;100185.20;117029;1187;21859;-62
2022/09/19 10:53:03;;;;;;;1.80;0.30;;;;;;;26.44;29.23;100185.26;117637;1187;24734;-72
2022/09/19 10:55:33;;;;;;;0.20;0.20;;;;;;;26.62;29.65;100182.11;117119;1189;24204;-62
2022/09/19 10:58:12;;;;;;;1.60;0.80;;;;;;;26.81;29.69;100178.59;117157;1187;23553;-62
2022/09/19 11:01:07;;;;;;;1.10;0.50;;;;;;;26.74;27.82;100183.52;117286;1187;23554;-72
2022/09/19 11:03:39;;;;;;;1.40;0.50;;;;;;;26.39;28.68;100173.25;116984;1188;22642;-62
2022/09/19 11:06:07;;;;;;;1.10;0.30;;;;;;;26.04;29.68;100165.10;117273;1185;21944;-72
2022/09/19 11:08:44;;;;;;;1.40;0.50;;;;;;;25.82;29.76;100162.35;117250;1186;23558;-72
2022/09/19 11:11:52;;;;;;;0.50;0.20;;;;;;;25.85;30.54;100159.38;117152;1186;22821;-62
2022/09/19 11:14:19;;;;;;;2.10;0.50;;;;;;;26.10;30.92;100160.27;117222;1186;22673;-62
2022/09/19 11:16:58;;;;;;;1.90;0.30;;;;;;;26.19;29.74;100159.05;117173;1185;23595;-72
2022/09/19 11:19:46;;;;;;;1.30;0.50;;;;;;;26.03;29.31;100162.60;117464;1185;22914;-70
2022/09/19 11:23:02;;;;;;;2.80;0.40;;;;;;;25.90;29.72;100162.25;117073;1185;23583;-62
2022/09/19 11:25:34;;;;;;;0.90;0.30;;;;;;;25.72;29.89;100161.65;117282;1185;23589;-70
2022/09/19 11:28:20;;;;;;;4.90;0.40;;;;;;;25.54;29.78;100162.52;117124;1187;23576;-62
2022/09/19 11:31:05;;;;;;;0.70;0.40;;;;;;;25.28;28.78;100160.78;116986;1187;23664;-70
2022/09/19 11:33:38;;;;;;;1.90;0.30;;;;;;;25.06;29.66;100153.16;117137;1185;21858;-63
2022/09/19 11:36:28;;;;;;;3.10;0.40;;;;;;;25.04;29.15;100144.69;117028;1184;22883;-68
2022/09/19 11:39:14;;;;;;;1.20;0.20;;;;;;;25.02;28.56;100137.29;117069;1182;21856;-69
2022/09/19 11:42:18;;;;;;;2.20;0.30;;;;;;;25.03;28.59;100141.55;117011;1182;22869;-68
2022/09/19 11:45:08;;;;;;;2.80;0.30;;;;;;;25.06;28.65;100138.06;117205;1185;22622;-63
2022/09/19 11:48:00;;;;;;;2.20;0.40;;;;;;;25.04;28.00;100139.66;117382;1185;22802;-63
2022/09/19 11:50:39;;;;;;;0.40;0.30;;;;;;;25.00;28.66;100143.14;117129;1182;21870;-63
2022/09/19 11:53:29;;;;;;;2.70;0.60;;;;;;;24.99;29.14;100137.16;117210;1182;22828;-64
2022/09/19 11:56:26;;;;;;;1.60;0.30;;;;;;;24.97;29.12;100136.77;117258;1186;24255;-63
2022/09/19 11:59:04;;;;;;;2.30;0.30;;;;;;;24.90;29.10;100132.47;117982;1185;21860;-62
2022/09/19 12:01:58;;;;;;;1.30;0.30;;;;;;;24.86;29.01;100144.95;117281;1185;24234;-69
2022/09/19 12:04:32;;;;;;;1.90;0.70;;;;;;;24.75;29.18;100146.33;117155;1186;23837;-63
2022/09/19 12:07:15;;;;;;;1.60;0.20;;;;;;;24.57;28.67;100157.65;116901;1187;23582;-68
2022/09/19 12:09:51;;;;;;;1.50;0.30;;;;;;;24.41;28.48;100163.55;117264;1188;23650;-64
2022/09/19 12:12:20;;;;;;;0.60;0.20;;;;;;;24.37;29.19;100159.55;117068;1187;23281;-69
2022/09/19 12:14:51;;;;;;;1.30;0.30;;;;;;;24.35;28.73;100161.76;117015;1189;21904;-69
2022/09/19 12:17:23;;;;;;;3.10;0.80;;;;;;;24.33;27.92;100160.29;117052;1187;21859;-68
2022/09/19 12:20:16;;;;;;;31.00;2.50;;;;;;;24.33;28.66;100161.05;116914;1187;22943;-68
2022/09/19 12:22:49;;;;;;;3.10;0.80;;;;;;;24.32;29.41;100151.60;117264;1186;22734;-69
2022/09/19 12:25:20;;;;;;;6.40;0.60;;;;;;;24.25;28.53;100158.41;117252;1185;23660;-69
2022/09/19 12:28:01;;;;;;;0.90;0.20;;;;;;;24.25;28.72;100157.36;117040;1183;23660;-69
2022/09/19 12:30:33;;;;;;;0.80;0.30;;;;;;;24.20;28.62;100155.54;117264;1186;23576;-63
2022/09/19 12:33:12;;;;;;;2.20;0.60;;;;;;;24.19;27.89;100155.63;117282;1185;23586;-63
2022/09/19 12:35:48;;;;;;;1.40;0.40;;;;;;;24.23;28.61;100161.77;117093;1188;24162;-69
2022/09/19 12:38:48;;;;;;;0.40;0.20;;;;;;;24.24;28.87;100163.00;117180;1186;23579;-69
2022/09/19 12:41:16;;;;;;;2.30;0.30;;;;;;;24.23;28.93;100166.27;116961;1188;23604;-68
2022/09/19 12:44:08;;;;;;;1.10;0.40;;;;;;;24.15;28.19;100166.15;117031;1188;23599;-63
2022/09/19 12:47:15;;;;;;;1.40;0.40;;;;;;;24.02;29.11;100161.16;117294;1185;24233;-68
2022/09/19 12:50:08;;;;;;;0.90;0.30;;;;;;;23.90;29.04;100159.77;117235;1186;23592;-68
2022/09/19 12:52:44;;;;;;;1.80;0.60;;;;;;;23.77;29.10;100155.36;117078;1187;23617;-63
2022/09/19 12:55:21;;;;;;;1.10;0.30;;;;;;;23.67;29.44;100155.72;117103;1186;22002;-63
2022/09/19 12:58:12;;;;;;;1.10;0.30;;;;;;;23.60;29.03;100153.16;116947;1182;23691;-69
2022/09/19 13:00:42;;;;;;;1.50;0.40;;;;;;;23.52;28.97;100153.54;117195;1182;22595;-70
2022/09/19 13:03:16;;;;;;;1.60;0.30;;;;;;;23.41;28.10;100157.50;116976;1182;23579;-68
2022/09/19 13:05:52;;;;;;;0.50;0.20;;;;;;;23.27;28.30;100155.60;117224;1181;24701;-68
2022/09/19 13:08:44;;;;;;;1.30;0.30;;;;;;;23.16;28.57;100157.08;117128;1188;24705;-64
2022/09/19 13:11:26;;;;;;;0.90;0.30;;;;;;;23.10;28.59;100155.32;117194;1186;24235;-69
2022/09/19 13:14:14;;;;;;;1.90;0.30;;;;;;;23.07;29.12;100152.11;117089;1188;24727;-63
2022/09/19 13:23:30;;;;;;;1.00;0.40;;;;;;;23.06;29.24;100155.27;117099;1187;23569;-63
2022/09/19 13:24:50;;;;;;;1.70;0.50;;;;;;;22.91;29.39;100157.52;117273;1185;23627;-64
2022/09/19 13:27:18;;;;;;;0.60;0.30;;;;;;;22.87;29.21;100155.98;117103;1187;23001;-69
2022/09/19 13:29:46;;;;;;;1.50;0.30;;;;;;;22.84;29.84;100156.86;116860;1189;23461;-68
2022/09/19 13:32:34;;;;;;;2.10;0.40;;;;;;;22.80;29.12;100152.36;117115;1182;23529;-68
2022/09/19 13:35:10;;;;;;;5.20;0.50;;;;;;;22.77;29.70;100153.61;117085;1187;23620;-69
2022/09/19 13:37:39;;;;;;;1.20;0.30;;;;;;;22.73;30.13;100155.82;117304;1186;22097;-64
2022/09/19 13:40:16;;;;;;;1.00;0.40;;;;;;;22.68;30.08;100154.19;116967;1188;24039;-64
2022/09/19 13:42:50;;;;;;;2.20;0.40;;;;;;;22.64;30.37;100153.75;119104;1187;22142;-63
2022/09/19 13:45:36;;;;;;;3.20;0.30;;;;;;;22.59;30.35;100156.40;119068;1182;21864;-67
2022/09/19 13:48:15;;;;;;;1.40;0.70;;;;;;;22.54;30.83;100155.44;119138;1184;21694;-68
2022/09/19 13:50:46;;;;;;;1.90;0.40;;;;;;;22.52;31.13;100156.29;118370;1187;23832;-67
2022/09/19 13:53:30;;;;;;;3.50;0.50;;;;;;;22.55;31.36;100155.36;117073;1187;23615;-69
2022/09/19 13:56:00;;;;;;;2.60;0.70;;;;;;;22.55;30.98;100155.54;116988;1187;24287;-64
2022/09/19 13:58:32;;;;;;;3.30;0.60;;;;;;;22.52;31.15;100155.09;117071;1187;22324;-68
2022/09/19 14:01:07;;;;;;;3.80;0.50;;;;;;;22.51;31.39;100154.77;117059;1187;22645;-64
2022/09/19 14:03:36;;;;;;;5.20;0.60;;;;;;;22.49;31.40;100153.64;117057;1188;23651;-64
2022/09/19 14:06:27;;;;;;;1.30;0.40;;;;;;;22.51;31.60;100150.48;117110;1185;21858;-69
2022/09/19 14:09:33;;;;;;;8.20;0.80;;;;;;;22.54;31.42;100149.04;117210;1186;21855;-69
2022/09/19 14:12:39;;;;;;;5.90;0.60;;;;;;;22.55;31.45;100148.02;116949;1187;23559;-69
2022/09/19 14:15:27;;;;;;;3.10;0.60;;;;;;;22.55;30.87;100148.80;116993;1187;22921;-68
2022/09/19 14:18:10;;;;;;;0.60;0.30;;;;;;;22.55;31.46;100145.76;117099;1187;24151;-69
2022/09/19 14:20:48;;;;;;;1.20;0.30;;;;;;;22.56;31.53;100144.95;117002;1187;23456;-64
2022/09/19 14:23:16;;;;;;;2.00;0.20;;;;;;;22.57;31.41;100145.20;117012;1187;21860;-65
2022/09/19 14:25:46;;;;;;;1.50;0.20;;;;;;;22.59;31.45;100146.18;117045;1187;21868;-63
2022/09/19 14:28:37;;;;;;;1.80;0.50;;;;;;;22.62;31.37;100143.12;116972;1187;23557;-64
2022/09/19 14:31:39;;;;;;;1.20;0.40;;;;;;;22.66;31.54;100146.05;117009;1184;23582;-64
2022/09/19 14:34:19;;;;;;;2.20;0.50;;;;;;;22.67;30.53;100147.09;117109;1185;23561;-65
2022/09/19 14:37:23;;;;;;;2.10;0.40;;;;;;;22.63;30.33;100147.02;116934;1187;23560;-64
2022/09/19 14:40:28;;;;;;;1.70;0.30;;;;;;;22.54;30.18;100143.17;117266;1186;24299;-69
2022/09/19 14:43:02;;;;;;;2.60;0.50;;;;;;;22.47;30.84;100141.09;117322;1186;24210;-65
2022/09/19 14:45:38;;;;;;;2.30;0.60;;;;;;;22.46;30.78;100141.34;117322;1186;24174;-69
2022/09/19 14:48:34;;;;;;;1.80;0.50;;;;;;;22.39;30.97;100142.43;117125;1186;22623;-69
2022/09/19 14:51:30;;;;;;;1.00;0.40;;;;;;;22.32;30.82;100142.05;117106;1188;23630;-69
2022/09/19 14:54:16;;;;;;;1.70;0.50;;;;;;;22.25;31.18;100144.05;117064;1187;23517;-68
2022/09/19 14:57:04;;;;;;;1.60;0.60;;;;;;;22.23;31.63;100145.48;117203;1186;23593;-69
2022/09/19 14:59:34;;;;;;;6.10;1.10;;;;;;;22.19;32.38;100145.05;117277;1185;23553;-70
2022/09/19 15:02:25;;;;;;;0.90;0.60;;;;;;;22.12;32.97;100143.67;117192;1186;23651;-68
2022/09/19 15:05:03;;;;;;;3.70;0.50;;;;;;;22.04;33.37;100142.92;117110;1188;23556;-70
2022/09/19 15:07:32;;;;;;;6.50;0.80;;;;;;;21.98;33.42;100143.15;117156;1187;23615;-63
2022/09/19 15:10:30;;;;;;;2.30;0.40;;;;;;;21.94;33.77;100137.66;117249;1186;22421;-62
2022/09/19 15:13:08;;;;;;;4.50;0.70;;;;;;;21.88;33.73;100136.80;117157;1186;22484;-71
2022/09/19 15:15:36;;;;;;;6.80;0.50;;;;;;;21.86;33.83;100134.92;117809;1186;23567;-64
2022/09/19 15:18:03;;;;;;;2.20;0.70;;;;;;;21.82;33.84;100138.38;116936;1187;22036;-66
2022/09/19 15:20:31;;;;;;;5.30;0.70;;;;;;;21.73;33.78;100138.27;117030;1187;23554;-67
2022/09/19 15:23:01;;;;;;;1.70;0.40;;;;;;;21.63;33.79;100141.03;117101;1188;24015;-63
2022/09/19 15:25:28;;;;;;;4.30;0.70;;;;;;;21.56;33.03;100143.58;116971;1187;21898;-64
2022/09/19 15:27:59;;;;;;;2.40;0.50;;;;;;;21.50;32.86;100143.38;117105;1186;22864;-67
2022/09/19 15:30:26;;;;;;;2.10;0.50;;;;;;;21.45;32.49;100139.62;117346;1187;21845;-67
2022/09/19 15:32:57;;;;;;;3.60;0.60;;;;;;;21.41;32.21;100143.80;117006;1186;23576;-67
2022/09/19 15:35:27;;;;;;;6.50;0.50;;;;;;;21.37;32.48;100144.39;117925;1186;22725;-64
2022/09/19 15:38:02;;;;;;;4.50;0.70;;;;;;;21.35;32.76;100145.23;116863;1187;22625;-67
2022/09/19 15:40:31;;;;;;;4.90;1.20;;;;;;;21.33;33.12;100144.48;117152;1186;21868;-63
2022/09/19 15:43:00;;;;;;;5.20;0.80;;;;;;;21.32;33.51;100142.73;117249;1187;22899;-67
2022/09/19 15:45:27;;;;;;;2.10;0.60;;;;;;;21.29;34.22;100137.22;117151;1186;22729;-67
2022/09/19 15:47:56;;;;;;;3.30;0.70;;;;;;;21.18;34.44;100136.41;117041;1187;22838;-63
2022/09/19 15:50:23;;;;;;;1.50;0.40;;;;;;;21.08;34.70;100133.80;117084;1188;23570;-63
2022/09/19 15:52:50;;;;;;;4.00;0.70;;;;;;;21.00;34.83;100131.97;116919;1185;21854;-67
2022/09/19 15:55:21;;;;;;;7.80;0.70;;;;;;;20.94;34.92;100135.88;116873;1188;21877;-62
2022/09/19 15:57:50;;;;;;;8.30;1.10;;;;;;;20.91;35.13;100134.63;117003;1187;21862;-63
2022/09/19 16:00:17;;;;;;;5.90;1.10;;;;;;;20.86;35.09;100134.02;117050;1187;22626;-62
2022/09/19 16:02:48;;;;;;;6.40;1.40;;;;;;;20.82;35.12;100137.47;117206;1182;23763;-72
2022/09/19 16:05:21;;;;;;;5.90;0.90;;;;;;;20.76;35.23;100142.96;117019;1188;22585;-71
2022/09/19 16:10:42;;;;;;;6.40;0.90;;;;;;;20.61;35.38;100143.14;117127;1186;22857;-68
2022/09/19 16:13:33;;;;;;;3.80;0.80;;;;;;;20.57;35.49;100144.60;117110;1186;23583;-68
2022/09/19 16:16:02;;;;;;;3.20;0.70;;;;;;;20.53;35.75;100146.23;117055;1188;22641;-69
2022/09/19 16:18:31;;;;;;;3.00;0.60;;;;;;;20.47;35.94;100147.85;117086;1186;22017;-69
2022/09/19 16:21:03;;;;;;;1.60;0.50;;;;;;;20.40;35.99;100148.09;116990;1187;23461;-69
2022/09/19 16:23:38;;;;;;;5.20;0.90;;;;;;;20.32;36.34;100150.33;117072;1187;22934;-69
2022/09/19 16:26:05;;;;;;;1.40;0.60;;;;;;;20.26;36.38;100148.89;117126;1187;22655;-69
2022/09/19 16:28:34;;;;;;;2.20;0.50;;;;;;;20.19;36.48;100146.95;117028;1187;23668;-69
2022/09/19 16:31:08;;;;;;;6.50;0.40;;;;;;;20.13;36.70;100146.02;117030;1186;22813;-69
2022/09/19 16:33:39;;;;;;;2.20;0.40;;;;;;;20.05;36.82;100151.80;117159;1186;21890;-68
2022/09/19 16:36:13;;;;;;;2.30;0.50;;;;;;;19.97;36.89;100152.77;116948;1187;21899;-69
2022/09/19 16:39:02;;;;;;;2.90;0.80;;;;;;;19.91;36.85;100150.43;117119;1186;21879;-69
2022/09/19 16:41:33;;;;;;;2.60;0.40;;;;;;;19.87;37.03;100149.02;117068;1185;23560;-68
2022/09/19 16:44:16;;;;;;;5.00;0.80;;;;;;;19.82;37.19;100157.11;117013;1187;23006;-68
2022/09/19 16:46:46;;;;;;;3.00;0.80;;;;;;;19.75;37.30;100160.34;116977;1187;22824;-69
2022/09/19 16:49:13;;;;;;;5.60;0.90;;;;;;;19.71;37.33;100162.69;117121;1187;23299;-69
2022/09/19 16:51:40;;;;;;;2.20;0.60;;;;;;;19.69;37.43;100164.23;117024;1188;23675;-69
2022/09/19 16:54:11;;;;;;;3.30;0.90;;;;;;;19.65;37.52;100164.83;117041;1187;23649;-69
2022/09/19 16:56:40;;;;;;;3.30;0.60;;;;;;;19.60;37.57;100170.55;117014;1186;22633;-68
2022/09/19 16:59:12;;;;;;;1.40;0.50;;;;;;;19.54;37.79;100178.90;117058;1186;22749;-69
2022/09/19 17:01:41;;;;;;;2.30;0.50;;;;;;;19.47;37.90;100184.06;116870;1189;22810;-69
2022/09/19 17:04:11;;;;;;;4.10;1.00;;;;;;;19.43;37.97;100189.27;117019;1187;21901;-68
2022/09/19 17:06:38;;;;;;;2.40;0.70;;;;;;;19.43;38.11;100197.59;117134;1186;21877;-68
2022/09/19 17:09:08;;;;;;;1.70;0.70;;;;;;;19.41;38.05;100202.02;117080;1186;22897;-68
2022/09/19 17:11:38;;;;;;;3.50;0.70;;;;;;;19.38;38.25;100206.27;117159;1186;21858;-68
2022/09/19 17:14:17;;;;;;;4.00;1.00;;;;;;;19.30;38.56;100215.15;117111;1186;22896;-68
2022/09/19 17:16:46;;;;;;;1.60;0.50;;;;;;;19.26;38.92;100215.05;117080;1186;21897;-68
2022/09/19 17:19:13;;;;;;;2.20;0.60;;;;;;;19.24;38.90;100214.77;117015;1187;23536;-69
2022/09/19 17:21:41;;;;;;;6.70;0.60;;;;;;;19.23;38.98;100217.84;116965;1187;23632;-67
2022/09/19 17:24:11;;;;;;;2.70;0.60;;;;;;;19.21;38.82;100221.17;117175;1186;22550;-68
2022/09/19 17:26:38;;;;;;;3.80;1.00;;;;;;;19.19;39.48;100220.19;117109;1186;22563;-69
2022/09/19 17:29:07;;;;;;;2.50;0.50;;;;;;;19.17;39.56;100220.12;117124;1186;21997;-68
2022/09/19 17:31:35;;;;;;;2.40;0.40;;;;;;;19.15;39.18;100218.59;117167;1187;22834;-68
2022/09/19 17:34:06;;;;;;;1.70;0.60;;;;;;;19.15;39.17;100211.70;116982;1188;21862;-68
2022/09/19 17:36:33;;;;;;;3.50;0.70;;;;;;;19.16;39.15;100206.66;117197;1186;23580;-68
2022/09/19 17:39:02;;;;;;;2.50;0.50;;;;;;;19.15;39.11;100205.63;117123;1186;21922;-67
2022/09/19 17:41:32;;;;;;;3.20;0.60;;;;;;;19.16;39.26;100206.27;117026;1187;23601;-68
2022/09/19 17:44:01;;;;;;;3.90;0.60;;;;;;;19.15;39.23;100209.20;116935;1187;22818;-68
2022/09/19 17:46:28;;;;;;;2.10;0.60;;;;;;;19.12;39.24;100217.70;117094;1186;21859;-66
2022/09/19 17:48:56;;;;;;;2.40;0.70;;;;;;;19.08;39.10;100217.38;117144;1187;23557;-62
2022/09/19 17:51:23;;;;;;;6.60;0.60;;;;;;;19.06;39.17;100214.98;117257;1187;23576;-62
2022/09/19 17:53:51;;;;;;;3.90;0.70;;;;;;;19.04;39.06;100211.34;117065;1187;22799;-63
2022/09/19 17:56:21;;;;;;;2.40;0.60;;;;;;;19.03;39.00;100215.84;117356;1185;23468;-67
2022/09/19 17:58:49;;;;;;;1.10;0.40;;;;;;;19.01;38.97;100220.89;117282;1185;21869;-62
2022/09/19 18:04:04;;;;;;;1.90;0.40;;;;;;;18.92;39.13;100219.72;117120;1187;21967;-62
2022/09/19 18:06:34;;;;;;;1.40;0.40;;;;;;;18.87;39.22;100222.61;117287;1185;21857;-62
2022/09/19 18:09:01;;;;;;;4.10;0.50;;;;;;;18.82;39.31;100222.88;117245;1188;24168;-62
2022/09/19 18:11:29;;;;;;;3.20;0.60;;;;;;;18.74;39.46;100224.86;117213;1186;23275;-67
2022/09/19 18:13:58;;;;;;;2.50;0.60;;;;;;;18.65;39.60;100226.19;117305;1186;21899;-67
2022/09/19 18:16:30;;;;;;;2.80;0.80;;;;;;;18.55;39.72;100225.42;117327;1186;24198;-62
2022/09/19 18:18:56;;;;;;;1.90;0.60;;;;;;;18.47;40.05;100219.59;117287;1186;22928;-67
2022/09/19 18:21:23;;;;;;;5.00;0.50;;;;;;;18.38;40.17;100219.31;117075;1187;22715;-67
2022/09/19 18:23:50;;;;;;;4.10;0.90;;;;;;;18.27;40.28;100226.73;117112;1189;21884;-66
2022/09/19 18:26:23;;;;;;;2.90;0.60;;;;;;;18.18;40.39;100234.77;117120;1188;23451;-62
2022/09/19 18:28:57;;;;;;;1.90;0.70;;;;;;;18.08;40.95;100240.55;117133;1187;21860;-62
2022/09/19 18:31:25;;;;;;;2.50;0.60;;;;;;;18.02;41.07;100242.26;117094;1187;21942;-63
2022/09/19 18:33:53;;;;;;;2.00;0.70;;;;;;;17.95;41.21;100236.66;117034;1184;24151;-67
2022/09/19 18:36:22;;;;;;;4.60;0.70;;;;;;;17.93;40.99;100243.70;118611;1187;24151;-62
2022/09/19 18:38:50;;;;;;;1.10;0.70;;;;;;;17.91;40.98;100243.60;117064;1187;23614;-66
2022/09/19 18:41:18;;;;;;;3.20;0.60;;;;;;;17.89;41.13;100239.06;117140;1186;23479;-62
2022/09/19 18:43:45;;;;;;;2.30;0.50;;;;;;;17.87;41.37;100235.80;117203;1187;21860;-67
2022/09/19 18:46:17;;;;;;;2.40;0.50;;;;;;;17.84;41.32;100232.58;117155;1187;23497;-62
2022/09/19 18:48:45;;;;;;;3.30;0.60;;;;;;;17.80;41.34;100229.37;117274;1185;21869;-67
2022/09/19 18:51:14;;;;;;;1.20;0.50;;;;;;;17.75;41.66;100233.66;117221;1186;23551;-67
2022/09/19 18:53:44;;;;;;;4.40;1.00;;;;;;;17.73;41.44;100230.92;117228;1183;22944;-66
2022/09/19 18:56:12;;;;;;;2.30;0.50;;;;;;;17.71;41.47;100225.67;117130;1187;21857;-61
2022/09/19 18:58:39;;;;;;;9.20;0.70;;;;;;;17.68;41.51;100221.58;117145;1188;21853;-62
2022/09/19 19:01:07;;;;;;;3.30;0.60;;;;;;;17.62;41.63;100219.71;117066;1186;23555;-61
2022/09/19 19:03:37;;;;;;;3.30;0.70;;;;;;;17.56;41.95;100220.33;117276;1186;23554;-67
2022/09/19 19:06:09;;;;;;;3.60;0.70;;;;;;;17.49;42.12;100218.32;117280;1186;21949;-67
2022/09/19 19:08:49;;;;;;;1.40;0.40;;;;;;;17.41;42.11;100216.68;117262;1185;23536;-61
2022/09/19 19:11:21;;;;;;;4.00;0.50;;;;;;;17.35;42.30;100222.29;117261;1185;24170;-63
2022/09/19 19:13:48;;;;;;;5.20;0.70;;;;;;;17.32;42.54;100228.46;117206;1186;23556;-63
2022/09/19 19:16:22;;;;;;;1.90;0.50;;;;;;;17.28;42.41;100234.44;117173;1186;23555;-63
2022/09/19 19:18:51;;;;;;;2.20;0.50;;;;;;;17.25;42.52;100240.79;117193;1186;21861;-67
2022/09/19 19:21:33;;;;;;;2.20;0.70;;;;;;;17.23;42.57;100239.96;117301;1186;21899;-68
2022/09/19 19:24:00;;;;;;;2.20;0.80;;;;;;;17.21;42.82;100236.52;117060;1187;22921;-62
2022/09/19 19:26:28;;;;;;;2.50;0.60;;;;;;;17.19;42.92;100237.31;117213;1186;23536;-62
2022/09/19 19:28:56;;;;;;;1.00;0.50;;;;;;;17.17;42.79;100230.83;117248;1186;21871;-68
2022/09/19 19:31:24;;;;;;;2.90;0.70;;;;;;;17.15;43.38;100231.48;117063;1187;23663;-62
2022/09/19 19:33:52;;;;;;;1.50;0.50;;;;;;;17.10;43.21;100227.21;117001;1187;21985;-63
2022/09/19 19:36:20;;;;;;;2.80;0.60;;;;;;;17.11;43.25;100222.23;117182;1186;22999;-68
2022/09/19 19:38:48;;;;;;;6.10;0.90;;;;;;;17.11;43.41;100218.85;117288;1186;23461;-68
2022/09/19 19:41:23;;;;;;;1.70;0.60;;;;;;;17.12;43.32;100215.99;117190;1186;23557;-62
2022/09/19 19:43:52;;;;;;;5.80;0.60;;;;;;;17.12;43.45;100222.90;117129;1188;24209;-67
2022/09/19 19:46:21;;;;;;;4.50;1.00;;;;;;;17.12;43.41;100223.06;117147;1187;23599;-62
2022/09/19 19:48:49;;;;;;;5.20;0.70;;;;;;;17.13;43.32;100212.92;117075;1187;24173;-62
2022/09/19 19:51:18;;;;;;;7.40;0.80;;;;;;;17.15;43.46;100215.70;117148;1187;22932;-62
2022/09/19 19:53:45;;;;;;;4.60;0.70;;;;;;;17.15;43.57;100211.80;117255;1186;23449;-62
2022/09/19 19:56:19;;;;;;;3.50;0.70;;;;;;;17.15;43.63;100217.46;117273;1186;23551;-68
2022/09/19 19:58:47;;;;;;;4.60;0.90;;;;;;;17.14;44.23;100220.66;117080;1187;23599;-68
2022/09/19 20:01:22;;;;;;;2.20;0.60;;;;;;;17.13;44.34;100217.18;117133;1188;23596;-68
2022/09/19 20:03:51;;;;;;;2.90;0.60;;;;;;;17.11;44.17;100220.79;117095;1188;21856;-62
2022/09/19 20:06:24;;;;;;;2.30;0.60;;;;;;;17.07;44.37;100222.91;117268;1186;22838;-62
2022/09/19 20:08:52;;;;;;;3.00;0.60;;;;;;;17.08;44.53;100223.21;116981;1187;21900;-68
2022/09/19 20:11:20;;;;;;;3.60;0.70;;;;;;;17.07;44.58;100227.70;117145;1186;21863;-68
2022/09/19 20:14:01;;;;;;;3.20;0.60;;;;;;;17.06;44.43;100231.65;117141;1187;23557;-62
2022/09/19 20:16:38;;;;;;;2.80;0.40;;;;;;;17.04;44.59;100232.08;117128;1187;23462;-62
2022/09/19 20:19:06;;;;;;;2.10;0.40;;;;;;;17.02;44.12;100224.70;117080;1187;21848;-67
2022/09/19 20:21:41;;;;;;;1.10;0.40;;;;;;;17.01;44.10;100211.45;116955;1188;23557;-63
2022/09/19 20:24:19;;;;;;;1.90;0.50;;;;;;;17.02;44.08;100199.90;117110;1188;22626;-62
2022/09/19 20:26:47;;;;;;;0.80;0.40;;;;;;;17.02;43.96;100199.21;117148;1187;23553;-62
2022/09/19 20:29:22;;;;;;;1.60;0.30;;;;;;;17.01;43.81;100201.55;117284;1186;24148;-62
2022/09/19 20:31:50;;;;;;;1.80;0.40;;;;;;;16.99;44.10;100202.53;117063;1187;23988;-67
2022/09/19 20:34:16;;;;;;;2.90;0.50;;;;;;;16.95;43.67;100205.48;117212;1185;22101;-62
2022/09/19 20:36:43;;;;;;;1.50;0.50;;;;;;;16.95;43.64;100202.81;117081;1186;24144;-67
2022/09/19 20:39:12;;;;;;;1.70;0.90;;;;;;;16.98;43.49;100202.73;117203;1187;24199;-68
2022/09/19 20:41:42;;;;;;;0.80;0.40;;;;;;;17.01;43.44;100200.64;117251;1188;21855;-68
2022/09/19 20:44:10;;;;;;;2.40;0.60;;;;;;;17.03;43.47;100204.48;117236;1185;23637;-62
2022/09/19 20:46:38;;;;;;;4.30;0.40;;;;;;;17.03;43.33;100201.27;117144;1187;23556;-62
2022/09/19 20:49:08;;;;;;;1.40;0.50;;;;;;;17.01;43.34;100201.36;117099;1187;23579;-68
2022/09/19 20:51:40;;;;;;;1.60;0.50;;;;;;;16.99;43.40;100199.18;117169;1185;23550;-62
2022/09/19 20:54:14;;;;;;;3.40;0.60;;;;;;;16.93;43.46;100193.66;117287;1186;21873;-68
2022/09/19 20:56:44;;;;;;;1.30;0.30;;;;;;;16.91;43.42;100189.70;117121;1187;23688;-68
2022/09/19 20:59:14;;;;;;;1.90;0.30;;;;;;;16.88;43.55;100189.28;117219;1186;23551;-62
2022/09/19 21:01:41;;;;;;;2.40;0.50;;;;;;;16.84;43.45;100186.45;117100;1188;23541;-62
2022/09/19 21:04:16;;;;;;;2.60;0.80;;;;;;;16.77;43.60;100189.04;117324;1186;24159;-62
2022/09/19 21:06:43;;;;;;;2.10;0.40;;;;;;;16.69;43.60;100193.96;117110;1186;24246;-67
2022/09/19 21:09:11;;;;;;;1.20;0.30;;;;;;;16.59;43.74;100195.98;117213;1185;23554;-67
2022/09/19 21:11:38;;;;;;;2.10;0.30;;;;;;;16.48;43.84;100195.70;117225;1186;23556;-62
2022/09/19 21:14:06;;;;;;;0.60;0.30;;;;;;;16.41;43.90;100192.96;117071;1187;23569;-66
2022/09/19 21:16:33;;;;;;;1.30;0.50;;;;;;;16.35;44.00;100192.11;117087;1187;23555;-68